createdAt,value
2022-09-04T00:04:50.234Z,19.71
2022-09-04T00:10:27.462Z,19.69
2022-09-04T00:15:36.350Z,19.65
2022-09-04T00:20:43.057Z,19.62
2022-09-04T00:25:57.619Z,19.64
2022-09-04T00:31:13.300Z,19.66
2022-09-04T00:36:17.389Z,19.72
2022-09-04T00:41:19.191Z,19.75
2022-09-04T00:46:42.703Z,19.82
2022-09-04T00:51:53.625Z,19.79
2022-09-04T00:57:34.114Z,19.76
2022-09-04T01:02:57.236Z,19.72
2022-09-04T01:08:07.774Z,19.66
2022-09-04T01:13:14.121Z,19.56
2022-09-04T01:18:51.991Z,19.46
2022-09-04T01:24:09.315Z,19.41
2022-09-04T01:29:34.318Z,19.28
2022-09-04T01:35:05.244Z,19.13
2022-09-04T01:40:35.628Z,19.08
2022-09-04T01:46:33.259Z,19.19
2022-09-04T01:52:13.037Z,19.18
2022-09-04T01:57:33.386Z,19.18
2022-09-04T02:02:53.299Z,19.18
2022-09-04T02:08:18.138Z,19.19
2022-09-04T02:13:29.541Z,19.17
2022-09-04T02:18:44.447Z,19.19
2022-09-04T02:24:06.374Z,19.22
2022-09-04T02:29:26.206Z,19.25
2022-09-04T02:34:47.068Z,19.25
2022-09-04T02:39:56.496Z,19.21
2022-09-04T02:45:05.372Z,19.20
2022-09-04T02:50:41.281Z,19.18
2022-09-04T02:56:09.510Z,18.98
2022-09-04T03:01:22.496Z,18.95
2022-09-04T03:06:44.586Z,18.71
2022-09-04T03:11:55.604Z,18.56
2022-09-04T03:17:20.346Z,18.64
2022-09-04T03:22:24.627Z,18.75
2022-09-04T03:27:27.690Z,18.82
2022-09-04T03:32:56.971Z,18.90
2022-09-04T03:38:17.136Z,18.87
2022-09-04T03:43:32.828Z,18.92
2022-09-04T03:49:00.457Z,18.97
2022-09-04T03:54:12.293Z,18.96
2022-09-04T03:59:25.851Z,18.95
2022-09-04T04:04:56.334Z,18.94
2022-09-04T04:10:23.092Z,18.94
2022-09-04T04:15:42.172Z,18.84
2022-09-04T04:20:54.376Z,18.82
2022-09-04T04:26:24.165Z,18.79
2022-09-04T04:31:44.778Z,18.75
2022-09-04T04:37:07.556Z,18.69
2022-09-04T04:42:31.409Z,18.58
2022-09-04T04:47:48.752Z,18.57
2022-09-04T04:52:50.552Z,18.51
2022-09-04T04:58:15.680Z,18.54
2022-09-04T05:04:00.825Z,18.56
2022-09-04T05:09:14.913Z,18.59
2022-09-04T05:15:05.035Z,18.65
2022-09-04T05:20:47.245Z,18.63
2022-09-04T05:26:06.628Z,18.66
2022-09-04T05:31:28.843Z,18.75
2022-09-04T05:36:42.859Z,18.74
2022-09-04T05:42:23.222Z,18.76
2022-09-04T05:47:35.575Z,18.90
2022-09-04T05:52:55.579Z,19.11
2022-09-04T05:58:08.525Z,19.32
2022-09-04T06:03:49.974Z,19.50
2022-09-04T06:08:51.761Z,19.71
2022-09-04T06:14:22.607Z,19.93
2022-09-04T06:19:27.443Z,20.14
2022-09-04T06:25:09.272Z,20.45
2022-09-04T06:30:15.321Z,20.75
2022-09-04T06:35:51.801Z,21.08
2022-09-04T06:41:29.721Z,21.47
2022-09-04T06:46:42.926Z,21.65
2022-09-04T06:52:11.199Z,21.84
2022-09-04T06:57:38.691Z,21.99
2022-09-04T07:02:59.794Z,22.22
2022-09-04T07:08:22.362Z,22.46
2022-09-04T07:13:46.106Z,22.79
2022-09-04T07:19:14.186Z,22.89
2022-09-04T07:24:29.846Z,22.89
2022-09-04T07:29:45.386Z,23.12
2022-09-04T07:35:05.049Z,23.37
2022-09-04T07:40:10.189Z,23.51
2022-09-04T07:45:27.926Z,23.61
2022-09-04T07:50:35.610Z,23.70
2022-09-04T07:55:46.882Z,23.68
2022-09-04T08:01:06.962Z,23.65
2022-09-04T08:06:20.861Z,23.66
2022-09-04T08:12:25.761Z,23.68
2022-09-04T08:17:33.365Z,23.62
2022-09-04T08:22:58.929Z,23.65
2022-09-04T08:28:17.779Z,23.74
2022-09-04T08:33:51.234Z,23.89
2022-09-04T08:39:10.059Z,23.86
2022-09-04T08:44:54.101Z,23.90
2022-09-04T08:50:27.623Z,23.94
2022-09-04T08:55:47.411Z,23.92
2022-09-04T09:01:22.985Z,23.94
2022-09-04T09:07:02.505Z,24.11
2022-09-04T09:12:19.476Z,24.47
2022-09-04T09:17:26.164Z,24.64
2022-09-04T09:23:17.920Z,24.95
2022-09-04T09:28:35.757Z,25.24
2022-09-04T09:33:58.655Z,25.56
2022-09-04T09:39:28.386Z,25.89
2022-09-04T09:45:04.429Z,25.98
2022-09-04T09:50:12.978Z,26.19
2022-09-04T09:55:38.315Z,26.35
2022-09-04T10:00:59.147Z,26.54
2022-09-04T10:06:25.696Z,26.57
2022-09-04T10:11:45.915Z,26.92
2022-09-04T10:17:16.072Z,27.18
2022-09-04T10:22:57.505Z,27.33
2022-09-04T10:28:26.113Z,27.45
2022-09-04T10:33:46.664Z,27.55
2022-09-04T10:39:35.821Z,27.66
2022-09-04T10:44:55.246Z,27.72
2022-09-04T10:50:07.680Z,27.37
2022-09-04T10:55:31.574Z,27.44
2022-09-04T11:00:52.433Z,27.49
2022-09-04T11:06:25.995Z,27.61
2022-09-04T11:11:40.739Z,27.68
2022-09-04T11:16:45.436Z,27.68
2022-09-04T11:22:12.778Z,27.66
2022-09-04T11:27:31.066Z,27.60
2022-09-04T11:32:51.923Z,27.55
2022-09-04T11:38:08.873Z,27.46
2022-09-04T11:43:16.622Z,27.40
2022-09-04T11:48:47.662Z,27.39
2022-09-04T11:54:00.432Z,27.38
2022-09-04T11:59:31.824Z,27.44
2022-09-04T12:04:39.538Z,27.44
2022-09-04T12:09:51.526Z,27.49
2022-09-04T12:15:29.905Z,27.40
2022-09-04T12:20:48.037Z,27.53
2022-09-04T12:26:14.234Z,27.68
2022-09-04T12:31:34.953Z,27.88
2022-09-04T12:36:43.580Z,28.11
2022-09-04T12:42:07.384Z,28.22
2022-09-04T12:47:16.589Z,28.32
2022-09-04T12:52:33.718Z,28.56
2022-09-04T12:57:47.589Z,28.69
2022-09-04T13:02:58.879Z,28.69
2022-09-04T13:08:19.178Z,28.74
2022-09-04T13:13:34.255Z,28.64
2022-09-04T13:18:58.825Z,28.75
2022-09-04T13:24:12.805Z,28.66
2022-09-04T13:29:50.726Z,28.70
2022-09-04T13:35:25.467Z,28.86
2022-09-04T13:40:42.874Z,28.94
2022-09-04T13:45:50.029Z,28.94
2022-09-04T13:51:00.679Z,28.83
2022-09-04T13:56:12.951Z,28.71
2022-09-04T14:01:22.749Z,28.66
2022-09-04T14:06:29.972Z,28.65
2022-09-04T14:11:58.359Z,28.64
2022-09-04T14:17:00.678Z,28.54
2022-09-04T14:22:21.972Z,28.65
2022-09-04T14:28:07.301Z,28.70
2022-09-04T14:33:28.410Z,28.68
2022-09-04T14:38:59.494Z,28.69
2022-09-04T14:44:04.039Z,28.58
2022-09-04T14:49:10.067Z,28.50
2022-09-04T14:54:36.508Z,28.45
2022-09-04T14:59:45.357Z,28.43
2022-09-04T15:05:22.906Z,28.43
2022-09-04T15:10:36.442Z,28.39
2022-09-04T15:15:48.182Z,28.34
2022-09-04T15:21:06.547Z,28.20
2022-09-04T15:26:33.046Z,28.04
2022-09-04T15:31:42.354Z,27.95
2022-09-04T15:36:44.943Z,27.88
2022-09-04T15:41:50.484Z,27.81
2022-09-04T15:47:17.546Z,27.79
2022-09-04T15:52:40.069Z,27.71
2022-09-04T15:58:05.673Z,27.69
2022-09-04T16:03:36.725Z,27.61
2022-09-04T16:08:57.242Z,27.49
2022-09-04T16:14:02.961Z,27.33
2022-09-04T16:19:35.133Z,27.19
2022-09-04T16:24:47.770Z,26.60
2022-09-04T16:30:04.061Z,26.40
2022-09-04T16:35:19.719Z,27.03
2022-09-04T16:40:56.389Z,27.24
2022-09-04T16:46:25.737Z,27.21
2022-09-04T16:51:39.894Z,27.14
2022-09-04T16:56:50.614Z,27.10
2022-09-04T17:02:02.516Z,27.04
2022-09-04T17:07:08.229Z,26.97
2022-09-04T17:12:52.838Z,26.94
2022-09-04T17:17:56.420Z,26.79
2022-09-04T17:29:03.640Z,26.68
2022-09-04T17:29:15.825Z,26.54
2022-09-04T17:40:39.449Z,26.48
2022-09-04T17:40:47.084Z,26.38
2022-09-04T17:45:39.176Z,26.35
2022-09-04T17:50:53.600Z,26.29
2022-09-04T17:56:06.904Z,26.21
2022-09-04T18:01:35.978Z,26.18
2022-09-04T18:06:47.350Z,26.07
2022-09-04T18:12:05.480Z,25.99
2022-09-04T18:17:33.226Z,25.87
2022-09-04T18:23:02.691Z,25.69
2022-09-04T18:28:18.677Z,25.54
2022-09-04T18:37:17.998Z,25.49
2022-09-04T18:39:26.467Z,25.36
2022-09-04T18:50:23.119Z,25.21
2022-09-04T18:50:51.122Z,25.11
2022-09-04T18:55:58.097Z,25.05
2022-09-04T19:01:27.669Z,24.94
2022-09-04T19:06:32.089Z,24.83
2022-09-04T19:11:43.513Z,24.69
2022-09-04T19:16:53.101Z,24.54
2022-09-04T19:22:26.383Z,24.43
2022-09-04T19:28:10.669Z,24.30
2022-09-04T19:33:39.540Z,24.18
2022-09-04T19:45:53.854Z,24.07
2022-09-04T19:46:13.887Z,24.04
2022-09-04T19:53:18.885Z,23.97
2022-09-04T19:55:55.681Z,23.87
2022-09-04T20:01:00.782Z,23.77
2022-09-04T20:06:20.408Z,23.68
2022-09-04T20:11:35.925Z,23.58
2022-09-04T20:16:48.304Z,23.54
2022-09-04T20:22:05.607Z,23.46
2022-09-04T20:27:27.059Z,23.37
2022-09-04T20:32:55.932Z,23.33
2022-09-04T20:38:23.401Z,23.26
2022-09-04T20:43:37.982Z,23.21
2022-09-04T20:52:53.854Z,23.12
2022-09-04T20:54:43.901Z,23.03
2022-09-04T21:03:19.364Z,22.97
2022-09-04T21:05:56.382Z,22.96
2022-09-04T21:11:10.334Z,22.92
2022-09-04T21:16:56.957Z,22.89
2022-09-04T21:22:05.243Z,22.81
2022-09-04T21:27:29.285Z,22.77
2022-09-04T21:32:45.151Z,22.69
2022-09-04T21:38:13.673Z,22.61
2022-09-04T21:43:40.126Z,22.28
2022-09-04T21:49:19.609Z,22.40
2022-09-04T21:58:49.216Z,22.33
2022-09-04T22:02:36.515Z,22.32
2022-09-04T22:05:50.063Z,22.26
2022-09-04T22:13:41.545Z,22.14
2022-09-04T22:16:41.973Z,22.02
2022-09-04T22:21:49.930Z,21.90
2022-09-04T22:27:24.344Z,21.80
2022-09-04T22:33:03.443Z,21.72
2022-09-04T22:38:26.378Z,21.71
2022-09-04T22:43:46.402Z,21.66
2022-09-04T22:49:16.868Z,21.60
2022-09-04T22:54:56.047Z,21.52
2022-09-04T23:00:07.358Z,21.46
2022-09-04T23:05:22.242Z,21.37
2022-09-04T23:13:47.724Z,21.28
2022-09-04T23:16:29.019Z,21.21
2022-09-04T23:26:35.788Z,21.16
2022-09-04T23:27:13.245Z,21.06
2022-09-04T23:33:07.369Z,20.97
2022-09-04T23:38:36.164Z,20.87
2022-09-04T23:44:25.568Z,20.78
2022-09-04T23:49:53.522Z,20.59
2022-09-04T23:55:17.769Z,20.51
